Time;durP1;ratioP1;P1;durP2;ratioP2;P2;SDS_P1;SDS_P2;PMS_P1;PMS_P2;Temp;Humidity;BMP_temperature;BMP_pressure;BME280_temperature;BME280_humidity;BME280_pressure;Samples;Min_cycle;Max_cycle;Signal;HPM_P1;HPM_P2
2022/08/09 00:01:47;;;;;;;14.90;9.02;;;;;;;15.59;86.35;102636.13;5024362;28;20027;-70
2022/08/09 00:04:20;;;;;;;13.63;8.88;;;;;;;15.64;85.99;102627.19;5041975;28;20017;-71
2022/08/09 00:06:46;;;;;;;14.68;7.93;;;;;;;15.62;85.70;102621.00;5041182;28;20036;-70
2022/08/09 00:09:12;;;;;;;12.30;8.65;;;;;;;15.63;85.70;102625.44;5044289;28;20056;-70
2022/08/09 00:11:38;;;;;;;12.73;8.45;;;;;;;15.66;85.54;102625.91;5043114;28;20086;-71
2022/08/09 00:14:04;;;;;;;11.15;7.95;;;;;;;15.62;85.88;102621.00;5043455;28;20025;-70
2022/08/09 00:16:29;;;;;;;12.00;7.90;;;;;;;15.59;85.91;102616.72;5044016;28;20025;-70
2022/08/09 00:18:55;;;;;;;11.73;8.43;;;;;;;15.57;85.73;102619.72;5043511;28;20032;-71
2022/08/09 00:21:20;;;;;;;11.57;8.23;;;;;;;15.54;85.92;102620.16;5042006;28;20013;-68
2022/08/09 00:23:45;;;;;;;11.07;8.23;;;;;;;15.53;85.99;102612.91;5023883;28;20093;-70
2022/08/09 00:26:11;;;;;;;9.88;7.80;;;;;;;15.52;85.41;102616.78;5022595;28;20385;-70
2022/08/09 00:28:38;;;;;;;11.90;7.70;;;;;;;15.48;85.82;102615.50;5023360;28;20384;-70
2022/08/09 00:31:03;;;;;;;9.52;7.30;;;;;;;15.45;86.18;102617.84;5023748;28;20063;-70
2022/08/09 00:33:29;;;;;;;12.43;7.35;;;;;;;15.51;86.33;102615.06;5023707;28;20484;-71
2022/08/09 00:35:54;;;;;;;10.57;7.20;;;;;;;15.57;85.72;102613.34;5022642;28;20021;-71
2022/08/09 00:38:20;;;;;;;11.25;7.43;;;;;;;15.53;85.55;102607.38;5023563;28;20078;-70
2022/08/09 00:40:46;;;;;;;9.63;6.93;;;;;;;15.54;85.52;102609.06;5023583;28;20116;-71
2022/08/09 00:43:12;;;;;;;10.43;6.57;;;;;;;15.56;85.30;102606.97;5022457;28;20052;-71
2022/08/09 00:45:37;;;;;;;11.13;6.75;;;;;;;15.57;85.14;102614.19;5022920;28;20029;-70
2022/08/09 00:48:04;;;;;;;8.95;6.82;;;;;;;15.62;85.29;102615.44;5023551;28;20056;-71
2022/08/09 00:50:30;;;;;;;10.55;7.20;;;;;;;15.55;85.27;102612.69;5023114;28;20026;-71
2022/08/09 00:52:56;;;;;;;10.05;6.75;;;;;;;15.57;85.15;102613.34;5036261;28;20044;-71
2022/08/09 00:55:22;;;;;;;9.07;7.15;;;;;;;15.47;86.04;102618.50;5043072;28;20373;-71
2022/08/09 00:57:47;;;;;;;11.80;6.93;;;;;;;15.46;85.53;102620.44;5031847;28;20037;-71
2022/08/09 01:00:13;;;;;;;10.60;6.47;;;;;;;15.39;85.71;102619.59;5022159;28;20025;-70
2022/08/09 01:02:45;;;;;;;10.35;6.78;;;;;;;15.39;85.46;102627.91;5023370;28;20026;-70
2022/08/09 01:05:42;;;;;;;15.75;6.93;;;;;;;15.37;85.97;102629.19;5022212;28;20036;-71
2022/08/09 01:08:14;;;;;;;10.63;6.72;;;;;;;15.30;85.77;102624.50;5022688;28;20585;-71
2022/08/09 01:11:31;;;;;;;10.15;6.75;;;;;;;15.34;85.10;102633.25;5022552;28;20030;-71
2022/08/09 01:14:06;;;;;;;;;;;;;;;15.39;83.40;102629.81;5039983;22;20084;-71
2022/08/09 01:16:39;;;;;;;14.73;6.60;;;;;;;15.27;85.50;102626.88;5022034;28;19963;-71
2022/08/09 01:19:22;;;;;;;10.38;6.22;;;;;;;15.22;85.60;102622.00;5021919;28;20021;-70
2022/08/09 01:21:57;;;;;;;11.43;6.35;;;;;;;15.11;85.86;102624.63;5022350;28;20028;-71
2022/08/09 01:24:44;;;;;;;8.15;5.95;;;;;;;15.09;85.83;102623.97;5021821;28;20089;-71
2022/08/09 01:27:11;;;;;;;11.40;6.47;;;;;;;14.98;85.95;102626.34;5021311;28;20033;-70
2022/08/09 01:29:43;;;;;;;8.87;6.20;;;;;;;14.90;86.52;102626.59;5021863;28;20030;-71
2022/08/09 01:32:11;;;;;;;7.50;6.07;;;;;;;14.77;86.58;102623.81;5021944;28;20334;-71
2022/08/09 01:34:39;;;;;;;9.63;6.75;;;;;;;14.71;86.65;102624.69;5041791;28;20040;-71
2022/08/09 01:37:07;;;;;;;9.73;7.13;;;;;;;14.62;86.83;102625.97;5041040;28;20083;-71
2022/08/09 01:39:35;;;;;;;10.13;6.50;;;;;;;14.64;87.06;102619.16;5042066;28;20075;-70
2022/08/09 01:42:03;;;;;;;9.20;6.63;;;;;;;14.62;87.69;102623.22;5040374;28;20521;-70
2022/08/09 01:44:29;;;;;;;8.38;6.18;;;;;;;14.61;87.61;102618.75;5041704;28;20437;-71
2022/08/09 01:46:58;;;;;;;11.23;7.20;;;;;;;14.59;88.01;102623.63;5041934;28;20025;-71
2022/08/09 01:49:24;;;;;;;;;;;;;;;14.68;85.31;102622.34;5042692;28;20393;-71
2022/08/09 01:51:55;;;;;;;9.18;6.40;;;;;;;14.58;87.89;102619.16;5037416;28;19964;-71
2022/08/09 01:54:26;;;;;;;10.82;6.93;;;;;;;14.56;88.10;102624.91;5042078;28;20036;-68
2022/08/09 01:56:55;;;;;;;8.63;6.53;;;;;;;14.50;88.30;102626.63;5040872;28;20041;-71
2022/08/09 01:59:21;;;;;;;8.10;7.03;;;;;;;14.49;88.46;102624.06;5041803;28;20120;-66
2022/08/09 02:01:51;;;;;;;8.77;7.07;;;;;;;14.45;89.35;102620.84;5041966;28;20047;-71
2022/08/09 02:04:19;;;;;;;11.52;7.68;;;;;;;14.47;89.49;102624.28;5041628;28;20041;-71
2022/08/09 02:09:33;;;;;;;10.43;6.70;;;;;;;14.44;89.51;102634.88;5021579;28;20057;-71
2022/08/09 02:12:00;;;;;;;12.63;7.65;;;;;;;14.41;89.47;102636.16;5020735;28;20017;-70
2022/08/09 02:14:27;;;;;;;9.85;6.72;;;;;;;14.45;89.72;102634.69;5003751;28;20419;-71
2022/08/09 02:16:54;;;;;;;9.73;7.18;;;;;;;14.43;89.65;102633.19;5020755;28;20472;-71
2022/08/09 02:19:20;;;;;;;9.85;7.63;;;;;;;14.40;89.92;102626.19;5022185;28;20037;-71
2022/08/09 02:21:48;;;;;;;8.63;7.05;;;;;;;14.47;89.69;102627.03;5021912;28;20029;-70
2022/08/09 02:24:17;;;;;;;;;;;;;;;14.74;87.36;102618.72;5021219;28;20041;-72
2022/08/09 02:26:44;;;;;;;11.00;7.63;;;;;;;14.44;89.13;102629.34;5020526;28;19913;-70
2022/08/09 02:29:20;;;;;;;12.00;7.00;;;;;;;14.40;90.18;102630.84;5022505;28;20048;-70
2022/08/09 02:31:47;;;;;;;10.43;7.00;;;;;;;14.32;90.50;102625.53;5032314;28;20074;-71
2022/08/09 02:34:19;;;;;;;11.45;8.07;;;;;;;14.32;90.50;102622.75;5044658;28;20017;-70
2022/08/09 02:36:50;;;;;;;11.05;7.75;;;;;;;14.42;90.54;102624.03;5026843;28;20526;-70
2022/08/09 02:39:21;;;;;;;11.38;7.45;;;;;;;14.43;91.20;102622.97;5045228;28;20025;-71
2022/08/09 02:42:07;;;;;;;10.43;7.82;;;;;;;14.61;90.18;102616.84;5044451;28;20707;-70
2022/08/09 02:44:42;;;;;;;12.38;8.23;;;;;;;14.47;91.03;102613.22;5041580;28;20047;-70
2022/08/09 02:47:12;;;;;;;12.30;7.90;;;;;;;14.43;91.57;102609.13;5044835;28;20510;-70
2022/08/09 02:49:44;;;;;;;12.18;8.38;;;;;;;14.51;91.12;102614.50;5044969;28;20029;-70
2022/08/09 02:52:13;;;;;;;13.85;8.63;;;;;;;14.43;91.41;102620.19;5044694;28;20037;-71
2022/08/09 02:54:41;;;;;;;12.48;8.43;;;;;;;14.47;91.67;102617.88;5045016;28;20494;-71
2022/08/09 02:57:10;;;;;;;15.93;9.03;;;;;;;14.44;91.32;102616.38;5043383;28;20032;-71
2022/08/09 02:59:38;;;;;;;13.10;8.05;;;;;;;14.39;91.06;102620.84;5043775;28;20857;-71
2022/08/09 03:02:05;;;;;;;15.57;8.77;;;;;;;14.37;91.18;102615.53;5044551;28;20025;-71
2022/08/09 03:04:32;;;;;;;11.93;8.80;;;;;;;14.37;90.80;102618.28;5044699;28;20545;-70
2022/08/09 03:06:59;;;;;;;11.85;8.55;;;;;;;14.26;91.03;102616.19;5026506;28;20036;-70
2022/08/09 03:09:26;;;;;;;13.50;8.57;;;;;;;14.17;91.84;102623.81;5044514;28;20021;-71
2022/08/09 03:11:53;;;;;;;14.00;9.77;;;;;;;14.06;92.57;102616.16;5043344;28;20903;-71
2022/08/09 03:14:20;;;;;;;16.73;10.82;;;;;;;14.11;93.62;102612.75;5044915;28;20110;-70
2022/08/09 03:16:46;;;;;;;14.57;10.15;;;;;;;14.15;93.24;102611.28;5027718;28;20029;-70
2022/08/09 03:19:13;;;;;;;14.88;10.00;;;;;;;14.14;92.64;102607.69;5023946;28;20017;-71
2022/08/09 03:21:40;;;;;;;14.07;9.93;;;;;;;14.08;92.68;102607.66;5023538;28;20431;-71
2022/08/09 03:24:05;;;;;;;13.60;10.00;;;;;;;14.05;93.25;102617.22;5024170;28;20545;-70
2022/08/09 03:26:32;;;;;;;17.77;11.05;;;;;;;14.03;93.97;102617.41;5023562;28;20037;-71
2022/08/09 03:28:58;;;;;;;16.13;10.63;;;;;;;14.06;93.70;102618.06;5024201;28;20025;-71
2022/08/09 03:31:26;;;;;;;15.35;10.68;;;;;;;14.05;93.29;102619.13;5024174;28;20014;-70
2022/08/09 03:33:52;;;;;;;15.40;10.88;;;;;;;13.95;92.90;102620.41;5023799;28;20104;-70
2022/08/09 03:36:18;;;;;;;18.75;10.68;;;;;;;13.88;93.42;102622.28;5024840;28;20029;-71
2022/08/09 03:38:43;;;;;;;15.52;11.18;;;;;;;13.88;93.10;102616.75;5023935;28;20044;-70
2022/08/09 03:41:10;;;;;;;16.20;11.30;;;;;;;13.81;93.37;102618.66;5036854;28;20431;-71
2022/08/09 03:43:35;;;;;;;17.33;10.88;;;;;;;13.74;93.45;102621.41;5044160;28;20476;-70
2022/08/09 03:46:00;;;;;;;18.58;11.65;;;;;;;13.67;94.07;102622.44;5043985;28;20040;-71
2022/08/09 03:48:28;;;;;;;21.42;11.70;;;;;;;13.66;94.09;102626.25;5043549;28;20021;-71
2022/08/09 03:50:54;;;;;;;18.10;11.75;;;;;;;13.61;94.54;102626.03;5043433;28;20049;-71
2022/08/09 03:53:21;;;;;;;18.85;11.77;;;;;;;13.64;94.93;102623.72;5044426;28;20032;-71
2022/08/09 03:55:47;;;;;;;18.85;11.95;;;;;;;13.62;95.15;102624.97;5034405;28;20392;-71
2022/08/09 03:58:12;;;;;;;23.75;12.45;;;;;;;13.64;95.08;102628.41;5023406;28;20029;-71
2022/08/09 04:00:40;;;;;;;21.10;12.85;;;;;;;13.65;94.80;102628.19;5023841;28;20044;-70
2022/08/09 04:03:06;;;;;;;21.92;13.50;;;;;;;13.64;94.89;102628.41;5023856;28;20026;-71
2022/08/09 04:05:31;;;;;;;21.00;12.82;;;;;;;13.64;95.05;102617.34;5023304;28;20030;-71
2022/08/09 04:07:57;;;;;;;21.05;12.95;;;;;;;13.65;95.26;102624.56;5023266;28;20044;-70
2022/08/09 04:10:23;;;;;;;22.42;12.95;;;;;;;13.61;95.03;102623.28;5023122;28;20041;-70
2022/08/09 04:12:50;;;;;;;21.65;13.60;;;;;;;13.53;95.08;102613.25;5024962;28;20125;-71
2022/08/09 04:15:16;;;;;;;25.02;13.98;;;;;;;13.52;95.02;102619.00;5023853;28;20026;-70
2022/08/09 04:17:42;;;;;;;19.63;13.02;;;;;;;13.49;95.57;102626.66;5023480;28;20035;-70
2022/08/09 04:20:10;;;;;;;20.77;12.57;;;;;;;13.49;94.89;102618.38;5022598;28;20083;-71
2022/08/09 04:22:35;;;;;;;20.42;12.55;;;;;;;13.41;95.12;102626.81;5023410;28;20496;-71
2022/08/09 04:25:01;;;;;;;22.00;13.35;;;;;;;13.41;95.21;102629.56;5023077;28;20120;-70
2022/08/09 04:27:26;;;;;;;24.50;13.32;;;;;;;13.36;95.29;102634.00;5022279;28;20025;-70
2022/08/09 04:29:51;;;;;;;24.52;14.27;;;;;;;13.31;96.00;102631.00;5040114;28;20686;-70
2022/08/09 04:32:17;;;;;;;22.13;14.05;;;;;;;13.33;96.16;102629.78;5043040;28;20025;-71
2022/08/09 04:34:42;;;;;;;24.27;14.43;;;;;;;13.38;96.84;102634.66;5043152;28;20024;-71
2022/08/09 04:37:07;;;;;;;23.83;13.90;;;;;;;13.47;96.72;102633.41;5042703;28;20043;-71
2022/08/09 04:39:33;;;;;;;22.23;13.90;;;;;;;13.53;96.20;102637.25;5042765;28;20050;-71
2022/08/09 04:41:58;;;;;;;27.85;15.60;;;;;;;13.52;96.41;102641.06;5041888;28;20021;-71
2022/08/09 04:44:24;;;;;;;23.27;13.32;;;;;;;13.61;95.85;102640.69;5040103;28;20036;-70
2022/08/09 04:46:49;;;;;;;22.52;14.38;;;;;;;13.53;96.78;102638.09;5024912;28;20029;-70
2022/08/09 04:49:14;;;;;;;27.85;15.02;;;;;;;13.59;97.39;102639.22;5042674;28;20025;-70
2022/08/09 04:51:40;;;;;;;27.33;15.85;;;;;;;13.61;97.40;102640.69;5041641;28;20326;-70
2022/08/09 04:54:05;;;;;;;25.80;15.30;;;;;;;13.68;96.96;102646.22;5042677;28;20029;-70
2022/08/09 04:56:31;;;;;;;26.73;14.98;;;;;;;13.71;96.96;102648.59;5042081;28;20040;-71
2022/08/09 04:58:56;;;;;;;27.30;15.10;;;;;;;13.70;96.58;102649.66;5042545;28;20025;-70
2022/08/09 05:01:21;;;;;;;28.65;15.45;;;;;;;13.70;97.06;102652.41;5042509;28;20090;-71
2022/08/09 05:03:47;;;;;;;29.88;15.38;;;;;;;13.73;97.23;102650.06;5027222;28;20435;-70
2022/08/09 05:06:14;;;;;;;23.48;15.50;;;;;;;13.80;97.51;102649.25;5022038;28;20058;-70
2022/08/09 05:08:39;;;;;;;26.55;15.38;;;;;;;13.89;97.29;102657.16;5023036;28;20395;-71
2022/08/09 05:11:05;;;;;;;28.98;16.02;;;;;;;13.93;97.08;102660.31;5021645;28;20096;-70
2022/08/09 05:13:30;;;;;;;30.40;16.80;;;;;;;13.91;97.88;102655.00;5022404;28;20045;-70
2022/08/09 05:15:55;;;;;;;28.52;16.38;;;;;;;13.98;97.65;102661.41;5021977;28;20025;-71
2022/08/09 05:18:21;;;;;;;31.50;17.17;;;;;;;14.06;96.90;102665.88;5022274;28;20029;-71
2022/08/09 05:20:46;;;;;;;33.97;17.90;;;;;;;14.07;97.23;102670.34;5021690;28;20045;-70
2022/08/09 05:23:12;;;;;;;30.42;16.52;;;;;;;14.13;97.46;102660.38;5022241;28;20025;-70
2022/08/09 05:25:37;;;;;;;35.30;17.95;;;;;;;14.17;97.16;102662.50;5021264;28;20555;-71
2022/08/09 05:28:02;;;;;;;34.63;17.65;;;;;;;14.25;96.62;102664.22;5021932;28;20447;-71
2022/08/09 05:30:28;;;;;;;34.65;18.48;;;;;;;14.31;96.39;102666.13;5022042;28;20034;-69
2022/08/09 05:32:54;;;;;;;33.83;18.33;;;;;;;14.35;96.67;102670.19;5021667;28;20075;-70
2022/08/09 05:35:20;;;;;;;31.73;17.48;;;;;;;14.38;96.91;102672.50;5021870;28;20029;-71
2022/08/09 05:37:47;;;;;;;33.53;17.98;;;;;;;14.44;96.59;102673.56;5035748;28;20033;-71
2022/08/09 05:40:13;;;;;;;34.15;18.75;;;;;;;14.46;96.42;102666.78;5041370;28;20104;-71
2022/08/09 05:42:38;;;;;;;38.75;18.50;;;;;;;14.52;96.41;102671.50;5041896;28;20108;-71
2022/08/09 05:45:04;;;;;;;37.00;19.40;;;;;;;14.61;96.20;102674.91;5041588;28;20406;-71
2022/08/09 05:47:30;;;;;;;43.90;19.88;;;;;;;14.64;96.11;102676.38;5042017;28;20032;-71
2022/08/09 05:49:55;;;;;;;38.10;18.80;;;;;;;14.65;96.41;102670.66;5041458;28;20022;-71
2022/08/09 05:52:22;;;;;;;41.33;20.48;;;;;;;14.77;95.86;102682.75;5041301;28;20580;-70
2022/08/09 05:54:47;;;;;;;48.35;21.30;;;;;;;14.87;95.76;102678.72;5038367;28;20108;-70
2022/08/09 05:57:13;;;;;;;40.38;21.50;;;;;;;14.89;95.74;102674.66;5020969;28;20042;-71
2022/08/09 05:59:38;;;;;;;36.88;19.73;;;;;;;14.91;96.24;102680.84;5021683;28;20112;-70
2022/08/09 06:02:04;;;;;;;41.75;20.30;;;;;;;15.04;95.78;102683.56;5021174;28;20017;-71
2022/08/09 06:04:29;;;;;;;40.53;20.63;;;;;;;15.10;95.33;102686.53;5024102;28;20074;-71
2022/08/09 06:06:54;;;;;;;44.17;21.33;;;;;;;15.22;95.07;102687.59;5025047;28;20030;-71
2022/08/09 06:09:20;;;;;;;48.38;20.10;;;;;;;15.23;95.08;102692.06;5025715;28;20051;-71
2022/08/09 06:11:45;;;;;;;40.58;20.88;;;;;;;15.26;95.47;102689.72;5030431;28;20482;-71
2022/08/09 06:14:11;;;;;;;41.63;19.75;;;;;;;15.35;94.76;102695.84;5044718;28;20055;-71
2022/08/09 06:16:36;;;;;;;42.45;19.70;;;;;;;15.38;95.02;102689.88;5045439;28;20072;-70
2022/08/09 06:19:01;;;;;;;44.08;20.67;;;;;;;15.48;94.41;102689.44;5045010;28;20029;-70
2022/08/09 06:21:26;;;;;;;44.38;21.05;;;;;;;15.53;94.30;102695.16;5045214;28;20769;-71
2022/08/09 06:23:54;;;;;;;38.55;19.92;;;;;;;15.64;94.22;102696.44;5045276;28;20032;-71
2022/08/09 06:26:21;;;;;;;41.38;19.35;;;;;;;15.62;94.33;102699.38;5044744;28;20083;-70
2022/08/09 06:28:47;;;;;;;35.47;18.48;;;;;;;15.71;93.59;102698.13;5045805;28;20544;-71
2022/08/09 06:31:12;;;;;;;32.85;18.67;;;;;;;15.77;93.70;102693.59;5024169;28;20037;-70
2022/08/09 06:33:37;;;;;;;32.08;17.70;;;;;;;15.80;93.93;102699.53;5024609;28;20201;-70
2022/08/09 06:36:03;;;;;;;28.83;17.20;;;;;;;15.83;93.67;102701.03;5024987;28;20024;-71
2022/08/09 06:38:28;;;;;;;27.00;16.35;;;;;;;15.93;94.00;102697.78;5025082;28;20064;-71
2022/08/09 06:40:54;;;;;;;26.90;15.07;;;;;;;16.08;92.47;102699.19;5032199;28;20044;-71
2022/08/09 06:43:19;;;;;;;24.30;14.82;;;;;;;16.13;93.13;102701.28;5045676;28;20037;-71
2022/08/09 06:45:44;;;;;;;25.80;15.18;;;;;;;16.25;92.01;102706.97;5044771;28;20057;-71
2022/08/09 06:48:11;;;;;;;21.33;13.65;;;;;;;16.30;92.00;102708.00;5043454;28;20074;-71
2022/08/09 06:50:36;;;;;;;21.88;13.43;;;;;;;16.34;92.08;102702.84;5044353;28;20029;-70
2022/08/09 06:53:03;;;;;;;21.30;13.15;;;;;;;16.50;90.65;102705.09;5044518;28;20387;-71
2022/08/09 06:55:31;;;;;;;16.95;12.55;;;;;;;16.65;90.73;102703.91;5043964;28;20029;-70
2022/08/09 06:57:57;;;;;;;;;;;;;;;16.96;89.93;102712.19;5044812;28;20025;-71
2022/08/09 07:00:22;;;;;;;16.88;11.25;;;;;;;17.15;86.95;102698.34;5045029;28;19975;-71
2022/08/09 07:02:49;;;;;;;15.85;11.93;;;;;;;17.11;87.99;102709.06;5044747;28;20391;-70
2022/08/09 07:05:14;;;;;;;15.63;12.10;;;;;;;17.09;87.69;102712.06;5041737;28;20648;-71
2022/08/09 07:07:40;;;;;;;16.25;10.40;;;;;;;17.10;88.02;102724.03;5024315;28;20042;-70
2022/08/09 07:10:05;;;;;;;15.85;12.02;;;;;;;17.14;87.57;102714.16;5023690;28;20025;-71
2022/08/09 07:12:30;;;;;;;16.73;11.57;;;;;;;17.19;87.69;102722.66;5023523;28;20033;-71
2022/08/09 07:14:56;;;;;;;16.13;11.07;;;;;;;17.20;88.29;102729.91;5023781;28;20101;-71
2022/08/09 07:17:21;;;;;;;13.45;10.98;;;;;;;17.24;87.21;102722.81;5024396;28;20028;-71
2022/08/09 07:19:46;;;;;;;15.55;10.93;;;;;;;17.30;87.99;102724.66;5024467;28;20022;-71
2022/08/09 07:22:12;;;;;;;14.63;11.23;;;;;;;17.39;88.47;102722.44;5023923;28;20034;-71
2022/08/09 07:24:37;;;;;;;15.13;10.70;;;;;;;17.45;87.02;102721.53;5037317;28;20133;-70
2022/08/09 07:27:02;;;;;;;16.17;11.30;;;;;;;17.56;86.71;102717.13;5042995;28;20547;-71
2022/08/09 07:29:28;;;;;;;16.08;10.95;;;;;;;17.77;85.48;102719.44;5043839;28;20029;-71
2022/08/09 07:31:53;;;;;;;14.35;11.50;;;;;;;17.88;85.35;102715.03;5043799;28;20672;-70
2022/08/09 07:34:19;;;;;;;14.27;10.70;;;;;;;17.93;84.48;102717.94;5044079;28;20047;-70
2022/08/09 07:36:44;;;;;;;13.48;10.57;;;;;;;18.04;83.97;102719.09;5043470;28;20086;-71
2022/08/09 07:39:10;;;;;;;17.33;11.15;;;;;;;18.08;83.37;102717.53;5042998;28;20542;-71
2022/08/09 07:41:35;;;;;;;15.18;10.60;;;;;;;18.23;82.94;102717.94;5042305;28;20037;-71
2022/08/09 07:44:00;;;;;;;17.02;11.25;;;;;;;18.44;82.25;102724.91;5043705;28;20483;-71
2022/08/09 07:46:26;;;;;;;13.63;10.38;;;;;;;18.58;82.52;102726.41;5043875;28;20021;-71
2022/08/09 07:48:52;;;;;;;15.13;10.35;;;;;;;18.65;80.58;102726.28;5043571;28;20705;-71
2022/08/09 07:51:17;;;;;;;14.98;10.95;;;;;;;18.63;79.58;102723.75;5025552;28;20033;-71
2022/08/09 07:53:43;;;;;;;14.35;10.18;;;;;;;18.65;80.91;102735.50;5043807;28;20072;-70
2022/08/09 07:56:08;;;;;;;13.52;10.23;;;;;;;18.78;80.77;102728.06;5042830;28;20471;-71
2022/08/09 07:58:34;;;;;;;14.25;9.52;;;;;;;18.92;79.17;102732.31;5032921;28;20033;-71
2022/08/09 08:00:59;;;;;;;15.27;10.30;;;;;;;19.00;76.07;102728.31;5023600;28;20033;-70
2022/08/09 08:03:24;;;;;;;13.98;9.93;;;;;;;18.97;76.15;102729.66;5024029;28;20022;-71
2022/08/09 08:05:50;;;;;;;16.63;10.32;;;;;;;18.97;77.78;102729.66;5023512;28;20503;-70
2022/08/09 08:08:15;;;;;;;17.25;10.75;;;;;;;19.10;77.82;102740.53;5023822;28;20076;-70
2022/08/09 08:10:40;;;;;;;14.38;9.90;;;;;;;19.16;77.30;102736.81;5022795;28;20032;-71
2022/08/09 08:13:06;;;;;;;14.38;10.05;;;;;;;19.25;77.48;102733.63;5023121;28;20467;-71
2022/08/09 08:15:31;;;;;;;15.60;10.13;;;;;;;19.32;77.18;102735.22;5029797;28;20024;-71
2022/08/09 08:17:56;;;;;;;13.40;10.27;;;;;;;19.38;77.03;102725.03;5043101;28;20120;-71
2022/08/09 08:20:24;;;;;;;15.13;9.68;;;;;;;19.45;77.12;102728.53;5042662;28;20017;-71
2022/08/09 08:22:49;;;;;;;14.02;10.27;;;;;;;19.55;77.06;102717.59;5043335;28;20029;-71
2022/08/09 08:25:15;;;;;;;15.88;9.68;;;;;;;19.64;76.92;102723.69;5042470;28;20033;-71
2022/08/09 08:27:41;;;;;;;13.35;8.90;;;;;;;19.74;75.93;102723.91;5042100;28;20055;-71
2022/08/09 08:30:07;;;;;;;13.52;8.70;;;;;;;19.87;73.79;102717.19;5042744;28;20032;-70
2022/08/09 08:32:32;;;;;;;11.13;7.72;;;;;;;19.98;72.14;102713.53;5040687;28;20048;-70
2022/08/09 08:34:58;;;;;;;11.43;7.85;;;;;;;20.03;72.22;102719.19;5042790;28;20495;-70
2022/08/09 08:37:23;;;;;;;11.73;7.60;;;;;;;20.14;71.47;102720.25;5042677;28;20104;-70
2022/08/09 08:39:49;;;;;;;12.70;7.68;;;;;;;20.25;70.69;102712.91;5042205;28;20103;-70
2022/08/09 08:42:14;;;;;;;11.65;6.45;;;;;;;20.28;69.21;102720.78;5042642;28;20036;-70
2022/08/09 08:44:42;;;;;;;12.73;6.72;;;;;;;20.42;68.22;102719.34;5042927;28;20483;-70
2022/08/09 08:47:08;;;;;;;10.63;6.63;;;;;;;20.50;68.55;102721.78;5042040;28;20418;-71
2022/08/09 08:49:39;;;;;;;10.88;6.10;;;;;;;20.56;67.18;102731.09;5043156;28;20025;-70
2022/08/09 08:52:06;;;;;;;9.80;5.82;;;;;;;20.69;67.88;102731.63;5024221;28;20040;-69
2022/08/09 08:54:33;;;;;;;11.73;6.38;;;;;;;20.81;66.90;102728.72;5021795;28;20033;-70
2022/08/09 08:56:59;;;;;;;11.25;5.28;;;;;;;20.94;68.10;102736.78;5022376;28;20021;-71
2022/08/09 08:59:25;;;;;;;15.50;5.75;;;;;;;21.06;64.66;102739.47;5022467;28;20032;-70
2022/08/09 09:01:50;;;;;;;10.93;4.68;;;;;;;21.31;64.93;102736.25;5022637;28;20383;-70
2022/08/09 09:04:18;;;;;;;12.80;4.85;;;;;;;21.60;65.06;102736.94;5023102;28;20025;-71
2022/08/09 09:06:47;;;;;;;10.30;5.30;;;;;;;21.65;63.22;102730.59;5021968;28;20432;-70
2022/08/09 09:09:14;;;;;;;9.27;4.25;;;;;;;21.83;63.24;102737.78;5038407;28;20276;-71
2022/08/09 09:11:41;;;;;;;9.00;4.05;;;;;;;21.86;62.20;102738.13;5042308;28;20867;-70
2022/08/09 09:14:16;;;;;;;7.47;3.88;;;;;;;21.91;63.07;102740.16;5042257;28;20106;-70
2022/08/09 09:16:42;;;;;;;8.15;3.78;;;;;;;22.19;62.65;102733.50;5042196;28;20036;-69
2022/08/09 09:19:10;;;;;;;9.07;4.20;;;;;;;22.37;61.38;102738.72;5042366;28;20359;-70
2022/08/09 09:21:36;;;;;;;7.82;3.17;;;;;;;22.44;58.75;102736.56;5041881;28;20025;-70
2022/08/09 09:24:06;;;;;;;7.22;3.30;;;;;;;22.79;58.71;102735.19;5041590;28;20035;-71
2022/08/09 09:26:33;;;;;;;5.55;2.78;;;;;;;23.03;57.40;102732.91;5031606;28;20021;-70
2022/08/09 09:28:59;;;;;;;6.05;2.78;;;;;;;23.94;54.35;102735.41;5022028;28;20744;-70
2022/08/09 09:31:26;;;;;;;6.72;2.90;;;;;;;25.72;50.35;102740.19;5021974;28;20037;-71
2022/08/09 09:33:51;;;;;;;5.00;2.35;;;;;;;27.51;45.62;102744.56;5021562;28;20148;-71
2022/08/09 09:36:17;;;;;;;7.43;2.50;;;;;;;29.91;39.93;102736.72;5022047;28;20104;-70
2022/08/09 09:38:46;;;;;;;3.80;1.45;;;;;;;30.23;38.17;102744.22;5022071;28;20352;-70
2022/08/09 09:41:26;;;;;;;4.25;1.67;;;;;;;30.54;36.32;102739.81;5021139;28;20071;-69
2022/08/09 09:43:56;;;;;;;5.15;1.67;;;;;;;31.60;34.19;102738.16;5025513;28;20036;-69
2022/08/09 09:46:32;;;;;;;5.55;1.90;;;;;;;31.79;34.78;102738.72;5041477;28;20025;-69
2022/08/09 09:49:06;;;;;;;4.72;1.25;;;;;;;32.91;32.03;102735.16;5041709;28;20025;-67
2022/08/09 09:51:33;;;;;;;3.28;1.10;;;;;;;33.51;30.76;102737.00;5041850;28;20021;-67
2022/08/09 09:54:18;;;;;;;4.80;1.10;;;;;;;33.90;31.22;102737.78;5041814;28;20025;-66
2022/08/09 09:56:46;;;;;;;3.95;1.13;;;;;;;33.32;29.26;102730.84;5041165;28;20120;-67
2022/08/09 09:59:14;;;;;;;3.72;1.30;;;;;;;33.08;30.38;102733.44;5041668;28;20033;-68
2022/08/09 10:01:41;;;;;;;2.90;1.00;;;;;;;33.18;29.01;102736.75;5031928;28;20431;-68
2022/08/09 10:04:15;;;;;;;4.32;1.10;;;;;;;34.00;30.25;102731.72;5022103;28;20033;-68
2022/08/09 10:06:45;;;;;;;3.28;0.98;;;;;;;34.56;27.58;102738.00;5021480;28;20061;-69
2022/08/09 10:09:14;;;;;;;5.28;1.02;;;;;;;34.87;27.95;102733.81;5021202;28;20026;-68
2022/08/09 10:11:40;;;;;;;2.65;0.90;;;;;;;35.65;25.43;102738.66;5021158;28;20043;-69
2022/08/09 10:14:18;;;;;;;3.33;0.88;;;;;;;35.61;25.89;102740.56;5021477;28;20045;-69
2022/08/09 10:16:44;;;;;;;3.63;0.90;;;;;;;35.09;26.45;102744.06;5021519;28;20045;-69
2022/08/09 10:19:09;;;;;;;2.45;0.98;;;;;;;35.93;25.37;102737.91;5039468;28;20032;-69
2022/08/09 10:21:44;;;;;;;3.40;0.80;;;;;;;36.49;26.31;102733.16;5040906;28;20396;-69
2022/08/09 10:24:10;;;;;;;1.70;0.70;;;;;;;36.60;23.46;102734.34;5041522;28;20355;-69
2022/08/09 10:26:36;;;;;;;3.28;0.88;;;;;;;36.51;25.89;102724.25;5040580;28;20047;-68
2022/08/09 10:29:03;;;;;;;2.65;0.80;;;;;;;35.92;24.31;102725.63;5040980;28;20040;-70
2022/08/09 10:31:29;;;;;;;2.57;0.70;;;;;;;35.65;23.47;102720.69;5041762;28;20029;-69
2022/08/09 10:33:54;;;;;;;2.60;0.77;;;;;;;35.64;24.38;102719.84;5041055;28;20426;-68
2022/08/09 10:36:20;;;;;;;3.78;0.93;;;;;;;35.14;25.66;102723.00;5039718;28;20021;-68
2022/08/09 10:38:46;;;;;;;2.55;0.60;;;;;;;34.87;25.27;102722.41;5041359;28;20025;-68
2022/08/09 10:41:13;;;;;;;2.10;0.90;;;;;;;35.30;24.64;102703.97;5022385;28;20021;-68
2022/08/09 10:43:46;;;;;;;;;;;;;;;36.38;25.48;102709.09;5042011;28;20028;-69
2022/08/09 10:46:34;;;;;;;2.40;0.70;;;;;;;35.61;23.90;102701.38;5040994;28;19952;-69
2022/08/09 10:49:11;;;;;;;3.53;0.93;;;;;;;35.79;24.63;102698.28;5040734;28;20486;-68
2022/08/09 10:52:06;;;;;;;4.22;1.00;;;;;;;36.09;23.85;102698.81;5044301;28;20033;-69
2022/08/09 10:54:32;;;;;;;3.30;0.90;;;;;;;35.91;24.00;102697.41;5042442;28;20056;-68
2022/08/09 10:57:12;;;;;;;3.50;0.90;;;;;;;35.86;25.75;102699.31;5045054;28;20053;-68
2022/08/09 10:59:39;;;;;;;4.15;0.80;;;;;;;35.72;25.39;102693.13;5044505;28;20029;-68
2022/08/09 11:02:06;;;;;;;2.65;0.52;;;;;;;35.37;24.93;102692.75;5044328;28;20052;-68
2022/08/09 11:04:32;;;;;;;3.15;0.77;;;;;;;35.40;24.63;102694.91;5044473;28;20029;-68
2022/08/09 11:06:58;;;;;;;4.13;0.80;;;;;;;34.88;24.41;102697.56;5044185;28;20068;-68
2022/08/09 11:09:41;;;;;;;3.37;1.00;;;;;;;32.98;27.69;102701.31;5044170;28;20106;-69
2022/08/09 11:12:09;;;;;;;2.13;0.73;;;;;;;32.16;29.32;102700.34;5041321;28;20852;-68
2022/08/09 11:14:38;;;;;;;1.73;0.82;;;;;;;31.30;29.97;102689.59;5044446;28;20049;-68
2022/08/09 11:17:13;;;;;;;3.33;1.00;;;;;;;30.50;32.52;102699.91;5044229;28;20028;-68
2022/08/09 11:20:03;;;;;;;3.33;0.95;;;;;;;29.86;33.09;102697.16;5043858;28;20107;-68
2022/08/09 11:22:40;;;;;;;3.40;0.93;;;;;;;29.22;33.79;102690.53;5044077;28;20017;-68